Time;durP1;ratioP1;P1;durP2;ratioP2;P2;SDS_P1;SDS_P2;PMS_P1;PMS_P2;Temp;Humidity;BMP_temperature;BMP_pressure;BME280_temperature;BME280_humidity;BME280_pressure;Samples;Min_cycle;Max_cycle;Signal;HPM_P1;HPM_P2
2021/11/19 00:01:11;;;;;;;;;;;;;;;1.87;70.45;96693.84;5017895;28;20049;-59
2021/11/19 00:03:36;;;;;;;;;;;;;;;1.73;71.54;96697.34;5017887;28;19928;-61
2021/11/19 00:06:02;;;;;;;;;;;;;;;2.15;69.37;96701.78;5017992;28;19989;-57
2021/11/19 00:08:27;;;;;;;;;;;;;;;2.07;69.38;96694.34;5017789;28;20052;-59
2021/11/19 00:10:56;;;;;;;;;;;;;;;2.19;69.54;96691.91;5021437;28;20388;-60
2021/11/19 00:13:22;;;;;;;;;;;;;;;1.88;70.60;96697.31;5021328;28;20071;-59
2021/11/19 00:15:47;;;;;;;;;;;;;;;2.24;69.22;96695.06;5019950;28;20559;-58
2021/11/19 00:18:12;;;;;;;;;;;;;;;2.09;69.93;96697.75;5022017;28;20024;-58
2021/11/19 00:20:37;;;;;;;;;;;;;;;2.03;69.42;96695.50;5021387;28;20078;-59
2021/11/19 00:23:04;;;;;;;;;;;;;;;2.28;68.56;96691.28;5021878;28;20547;-59
2021/11/19 00:25:29;;;;;;;;;;;;;;;2.44;68.36;96687.66;5021537;28;20043;-59
2021/11/19 00:27:54;;;;;;;;;;;;;;;1.62;71.50;96690.13;5021277;28;20001;-58
2021/11/19 00:30:20;;;;;;;;;;;;;;;1.64;71.37;96691.81;5021658;28;19969;-57
2021/11/19 00:32:45;;;;;;;;;;;;;;;1.82;70.63;96685.41;5020909;28;20154;-59
2021/11/19 00:35:10;;;;;;;;;;;;;;;1.60;71.54;96691.19;5003884;28;19968;-58
2021/11/19 00:37:36;;;;;;;;;;;;;;;1.59;71.98;96695.56;5021149;28;20065;-57
2021/11/19 00:40:02;;;;;;;;;;;;;;;1.54;72.56;96696.78;5021137;28;19975;-59
2021/11/19 00:42:28;;;;;;;;;;;;;;;1.79;71.29;96693.47;5019366;28;19917;-59
2021/11/19 00:44:53;;;;;;;;;;;;;;;2.25;69.96;96692.34;5029986;28;20011;-58
2021/11/19 00:47:19;;;;;;;;;;;;;;;1.74;72.05;96690.31;5026266;28;19984;-57
2021/11/19 00:49:44;;;;;;;;;;;;;;;1.84;71.59;96686.16;5021170;28;20259;-59
2021/11/19 00:52:10;;;;;;;;;;;;;;;2.07;70.55;96683.84;5020755;28;20446;-58
2021/11/19 00:54:35;;;;;;;;;;;;;;;2.24;70.01;96679.28;5019191;28;20325;-59
2021/11/19 00:57:03;;;;;;;;;;;;;;;2.35;69.76;96686.50;5023753;28;19925;-58
2021/11/19 00:59:29;;;;;;;;;;;;;;;2.39;69.11;96678.28;5021296;28;19970;-58
2021/11/19 01:01:57;;;;;;;;;;;;;;;1.65;72.03;96688.25;5020726;28;20004;-58
2021/11/19 01:04:22;;;;;;;;;;;;;;;2.41;70.50;96678.19;5020918;28;19990;-57
2021/11/19 01:06:48;;;;;;;;;;;;;;;2.28;69.96;96675.50;5020156;28;20493;-57
2021/11/19 01:09:15;;;;;;;;;;;;;;;2.78;68.46;96682.81;5018966;28;20006;-59
2021/11/19 01:11:41;;;;;;;;;;;;;;;2.67;68.19;96686.16;5018155;28;19917;-59
2021/11/19 01:14:07;;;;;;;;;;;;;;;2.61;69.06;96681.28;5001473;28;20527;-60
2021/11/19 01:16:35;;;;;;;;;;;;;;;2.50;68.80;96684.66;5020382;28;19921;-60
2021/11/19 01:19:04;;;;;;;;;;;;;;;2.57;69.63;96690.34;5003113;28;19921;-59
2021/11/19 01:21:36;;;;;;;;;;;;;;;2.56;69.66;96689.50;5019497;28;19921;-59
2021/11/19 01:24:01;;;;;;;;;;;;;;;2.24;70.35;96695.91;5014084;28;19997;-58
2021/11/19 01:26:30;;;;;;;;;;;;;;;2.82;68.35;96697.44;5020820;28;19970;-62
2021/11/19 01:28:56;;;;;;;;;;;;;;;2.16;70.45;96698.19;5019943;28;20001;-62
2021/11/19 01:31:22;;;;;;;;;;;;;;;2.96;67.83;96700.94;5002686;28;19917;-61
2021/11/19 01:33:48;;;;;;;;;;;;;;;3.21;67.22;96696.66;5002356;28;20088;-59
2021/11/19 01:36:14;;;;;;;;;;;;;;;3.07;66.60;96694.94;5020081;28;20076;-60
2021/11/19 01:38:40;;;;;;;;;;;;;;;2.78;68.00;96703.84;5002490;28;20056;-59
2021/11/19 01:41:07;;;;;;;;;;;;;;;3.47;66.32;96709.84;5002277;28;19994;-61
2021/11/19 01:43:33;;;;;;;;;;;;;;;3.53;65.61;96712.03;5009562;28;20333;-61
2021/11/19 01:45:58;;;;;;;;;;;;;;;3.35;67.67;96707.06;5017791;28;20063;-59
2021/11/19 01:48:25;;;;;;;;;;;;;;;2.59;68.69;96705.06;5001832;28;20356;-59
2021/11/19 01:51:05;;;;;;;;;;;;;;;2.95;67.28;96704.50;5020192;28;19921;-59
2021/11/19 01:53:30;;;;;;;;;;;;;;;3.26;66.83;96691.91;5019953;28;19921;-57
2021/11/19 01:56:00;;;;;;;;;;;;;;;3.05;67.42;96697.69;5019387;28;19943;-58
2021/11/19 01:58:30;;;;;;;;;;;;;;;3.45;66.12;96695.94;5002200;28;20376;-59
2021/11/19 02:00:57;;;;;;;;;;;;;;;3.25;67.02;96700.75;5002250;28;19921;-58
2021/11/19 02:03:24;;;;;;;;;;;;;;;3.28;66.10;96696.13;5020067;28;20279;-59
2021/11/19 02:06:06;;;;;;;;;;;;;;;2.90;67.68;96700.41;5019865;28;20015;-60
2021/11/19 02:08:37;;;;;;;;;;;;;;;3.05;67.39;96695.06;5019312;28;20398;-59
2021/11/19 02:11:13;;;;;;;;;;;;;;;3.26;66.88;96687.47;5019717;28;20015;-60
2021/11/19 02:13:50;;;;;;;;;;;;;;;3.78;66.43;96695.34;5019301;28;19967;-61
2021/11/19 02:16:20;;;;;;;;;;;;;;;4.09;64.48;96700.25;5025209;28;20015;-61
2021/11/19 02:18:59;;;;;;;;;;;;;;;3.89;64.94;96697.25;5016638;28;19924;-59
2021/11/19 02:21:44;;;;;;;;;;;;;;;4.07;64.50;96704.78;5001935;28;19952;-60
2021/11/19 02:24:13;;;;;;;;;;;;;;;4.01;63.69;96697.31;5008473;28;20047;-59
2021/11/19 02:26:39;;;;;;;;;;;;;;;3.52;65.32;96702.47;5019525;28;20151;-61
2021/11/19 02:29:05;;;;;;;;;;;;;;;3.51;65.97;96690.25;5018807;28;20007;-60
2021/11/19 02:31:31;;;;;;;;;;;;;;;3.10;66.43;96692.94;5001250;28;20355;-60
2021/11/19 02:33:57;;;;;;;;;;;;;;;3.65;66.83;96695.41;5019638;28;19976;-61
2021/11/19 02:36:29;;;;;;;;;;;;;;;2.69;68.58;96693.94;5018577;28;19989;-60
2021/11/19 02:38:58;;;;;;;;;;;;;;;2.75;69.50;96693.53;5019472;28;20380;-61
2021/11/19 02:41:27;;;;;;;;;;;;;;;3.01;68.24;96683.91;4998754;28;20040;-61
2021/11/19 02:43:55;;;;;;;;;;;;;;;3.08;68.36;96686.97;5010307;28;20016;-61
2021/11/19 02:46:24;;;;;;;;;;;;;;;2.81;69.02;96692.28;5001295;28;20454;-59
2021/11/19 02:48:49;;;;;;;;;;;;;;;2.86;68.86;96696.28;5014957;28;19952;-60
2021/11/19 02:51:15;;;;;;;;;;;;;;;2.82;69.56;96699.25;5022076;28;20385;-59
2021/11/19 02:53:41;;;;;;;;;;;;;;;3.21;67.86;96704.53;5022623;28;19917;-59
2021/11/19 02:56:07;;;;;;;;;;;;;;;3.34;67.78;96707.19;5004723;28;19924;-61
2021/11/19 02:58:33;;;;;;;;;;;;;;;2.86;69.11;96712.06;5023141;28;20441;-59
2021/11/19 03:01:09;;;;;;;;;;;;;;;3.13;68.26;96708.53;5022423;28;20250;-60
2021/11/19 03:03:35;;;;;;;;;;;;;;;2.98;69.07;96705.16;5015413;28;19928;-59
2021/11/19 03:06:00;;;;;;;;;;;;;;;2.59;70.73;96712.13;5022768;28;19921;-61
2021/11/19 03:08:26;;;;;;;;;;;;;;;2.57;69.99;96712.22;5022141;28;19952;-59
2021/11/19 03:10:55;;;;;;;;;;;;;;;2.35;71.17;96716.22;5022562;28;20393;-60
2021/11/19 03:13:20;;;;;;;;;;;;;;;1.99;72.44;96722.91;5022484;28;19948;-61
2021/11/19 03:15:46;;;;;;;;;;;;;;;2.63;70.11;96724.13;5022454;28;19925;-60
2021/11/19 03:18:15;;;;;;;;;;;;;;;2.38;71.34;96715.19;5022991;28;19913;-60
2021/11/19 03:20:41;;;;;;;;;;;;;;;2.32;71.99;96723.50;5022855;28;19921;-58
2021/11/19 03:23:06;;;;;;;;;;;;;;;2.65;70.31;96715.19;5022898;28;20305;-58
2021/11/19 03:25:32;;;;;;;;;;;;;;;2.23;72.39;96719.66;5022571;28;20337;-58
2021/11/19 03:27:58;;;;;;;;;;;;;;;2.61;71.25;96716.34;5022049;28;19921;-58
2021/11/19 03:30:23;;;;;;;;;;;;;;;2.50;71.33;96710.94;5022433;28;19921;-59
2021/11/19 03:32:49;;;;;;;;;;;;;;;3.29;69.46;96712.75;5021946;28;19922;-59
2021/11/19 03:35:15;;;;;;;;;;;;;;;2.97;69.14;96716.63;5004667;28;19917;-58
2021/11/19 03:37:42;;;;;;;;;;;;;;;3.13;69.54;96713.78;5022013;28;20283;-57
2021/11/19 03:40:08;;;;;;;;;;;;;;;2.32;71.33;96723.50;5003707;28;19960;-58
2021/11/19 03:42:33;;;;;;;;;;;;;;;2.74;71.48;96724.25;5039395;28;20454;-58
2021/11/19 03:44:59;;;;;;;;;;;;;;;2.83;69.79;96717.56;5040497;28;19917;-57
2021/11/19 03:47:29;;;;;;;;;;;;;;;3.23;68.53;96721.09;5028768;28;19921;-58
2021/11/19 03:49:54;;;;;;;;;;;;;;;2.60;70.87;96721.69;5028356;28;20038;-58
2021/11/19 03:52:24;;;;;;;;;;;;;;;2.67;71.01;96727.38;5028601;28;19921;-58
2021/11/19 03:54:50;;;;;;;;;;;;;;;2.99;70.07;96716.53;5028748;28;20228;-61
2021/11/19 03:57:15;;;;;;;;;;;;;;;3.33;69.23;96708.13;5027906;28;19925;-61
2021/11/19 03:59:41;;;;;;;;;;;;;;;3.20;69.55;96702.84;5028346;28;19921;-60
2021/11/19 04:02:06;;;;;;;;;;;;;;;3.08;69.52;96710.63;5028900;28;20145;-59
2021/11/19 04:04:33;;;;;;;;;;;;;;;3.07;69.78;96702.84;5028375;28;19932;-60
2021/11/19 04:07:00;;;;;;;;;;;;;;;2.59;70.86;96709.50;5028580;28;19917;-59
2021/11/19 04:09:25;;;;;;;;;;;;;;;2.72;70.85;96702.47;5027870;28;19925;-59
2021/11/19 04:11:51;;;;;;;;;;;;;;;2.46;72.31;96714.72;5028284;28;19928;-60
2021/11/19 04:14:16;;;;;;;;;;;;;;;2.80;71.25;96709.88;5028427;28;19924;-60
2021/11/19 04:16:44;;;;;;;;;;;;;;;2.73;71.49;96713.84;5028452;28;19917;-61
2021/11/19 04:19:09;;;;;;;;;;;;;;;2.89;71.02;96713.66;5028242;28;20050;-60
2021/11/19 04:21:35;;;;;;;;;;;;;;;2.89;69.71;96711.00;5028162;28;20000;-60
2021/11/19 04:24:00;;;;;;;;;;;;;;;2.24;72.66;96701.16;5010391;28;19940;-61
2021/11/19 04:26:27;;;;;;;;;;;;;;;2.39;72.76;96699.31;4994292;28;20396;-60
2021/11/19 04:28:54;;;;;;;;;;;;;;;2.59;72.53;96704.25;5009783;28;20337;-60
2021/11/19 04:31:19;;;;;;;;;;;;;;;2.73;71.82;96690.16;5029009;28;19976;-61
2021/11/19 04:33:45;;;;;;;;;;;;;;;2.34;72.20;96690.91;5027658;28;19925;-59
2021/11/19 04:36:11;;;;;;;;;;;;;;;2.38;72.05;96700.28;5027963;28;20023;-59
2021/11/19 04:38:36;;;;;;;;;;;;;;;2.50;72.28;96705.69;5029318;28;19925;-60
2021/11/19 04:41:02;;;;;;;;;;;;;;;2.19;73.27;96705.03;5011209;28;20449;-59
2021/11/19 04:43:27;;;;;;;;;;;;;;;2.39;72.74;96716.91;5028415;28;20212;-60
2021/11/19 04:45:53;;;;;;;;;;;;;;;2.35;72.93;96718.88;5028019;28;19925;-59
2021/11/19 04:48:18;;;;;;;;;;;;;;;2.50;72.94;96716.19;5010392;28;20373;-61
2021/11/19 04:50:45;;;;;;;;;;;;;;;2.77;71.64;96716.19;5028234;28;19925;-61
2021/11/19 04:53:10;;;;;;;;;;;;;;;2.91;70.28;96710.00;5042853;28;19917;-61
2021/11/19 04:55:36;;;;;;;;;;;;;;;2.98;70.69;96697.25;5024861;28;19924;-61
2021/11/19 04:58:01;;;;;;;;;;;;;;;2.95;70.45;96704.50;5007240;28;20348;-59
2021/11/19 05:00:31;;;;;;;;;;;;;;;3.17;69.25;96702.09;5024850;28;19925;-60
2021/11/19 05:02:56;;;;;;;;;;;;;;;2.78;71.33;96709.09;5006553;28;19967;-61
2021/11/19 05:05:23;;;;;;;;;;;;;;;2.77;71.78;96704.81;5024452;28;19949;-59
2021/11/19 05:07:49;;;;;;;;;;;;;;;2.90;70.93;96703.03;5049479;28;19944;-61
2021/11/19 05:10:14;;;;;;;;;;;;;;;2.53;72.38;96711.56;5024834;28;19935;-60
2021/11/19 05:12:41;;;;;;;;;;;;;;;3.09;69.93;96712.31;5006591;28;19917;-60
2021/11/19 05:15:06;;;;;;;;;;;;;;;2.83;71.14;96709.66;5024629;28;20016;-62
2021/11/19 05:17:32;;;;;;;;;;;;;;;2.70;72.12;96706.16;5024322;28;20008;-61
2021/11/19 05:19:57;;;;;;;;;;;;;;;2.53;71.68;96708.94;5024079;28;20028;-60
2021/11/19 05:22:23;;;;;;;;;;;;;;;2.89;70.81;96703.97;5024571;28;19921;-61
2021/11/19 05:24:49;;;;;;;;;;;;;;;3.14;69.78;96701.50;5024215;28;19925;-61
2021/11/19 05:27:14;;;;;;;;;;;;;;;2.99;70.48;96714.72;5024361;28;19956;-60
2021/11/19 05:29:39;;;;;;;;;;;;;;;3.48;68.75;96709.75;5006176;28;19983;-61
2021/11/19 05:32:05;;;;;;;;;;;;;;;3.68;68.16;96710.13;5023719;28;20306;-61
2021/11/19 05:34:30;;;;;;;;;;;;;;;3.12;69.76;96706.84;5023833;28;20004;-59
2021/11/19 05:36:55;;;;;;;;;;;;;;;2.77;71.65;96715.31;5024399;28;19979;-60
2021/11/19 05:39:21;;;;;;;;;;;;;;;3.07;70.77;96708.97;5018663;28;20267;-62
2021/11/19 05:41:46;;;;;;;;;;;;;;;2.82;70.87;96718.47;5006351;28;20547;-60
2021/11/19 05:44:12;;;;;;;;;;;;;;;2.88;70.50;96718.09;5024058;28;19925;-62
2021/11/19 05:46:43;;;;;;;;;;;;;;;2.67;72.64;96712.47;5024497;28;20157;-61
2021/11/19 05:49:09;;;;;;;;;;;;;;;2.74;71.39;96708.47;5023797;28;20341;-61
2021/11/19 05:51:35;;;;;;;;;;;;;;;2.78;71.71;96711.75;5023618;28;20063;-62
2021/11/19 05:54:00;;;;;;;;;;;;;;;2.20;73.81;96707.56;5006511;28;20003;-58
2021/11/19 05:56:25;;;;;;;;;;;;;;;2.50;72.53;96710.94;5005460;28;19921;-62
2021/11/19 05:58:51;;;;;;;;;;;;;;;2.58;72.12;96713.91;5006140;28;20374;-62
2021/11/19 06:01:17;;;;;;;;;;;;;;;2.40;73.47;96710.69;5023472;28;19917;-61
2021/11/19 06:03:44;;;;;;;;;;;;;;;2.08;74.95;96719.69;5022897;28;20322;-61
2021/11/19 06:06:10;;;;;;;;;;;;;;;2.69;73.02;96723.69;5023068;28;19925;-62
2021/11/19 06:08:36;;;;;;;;;;;;;;;2.62;72.63;96725.91;5022883;28;20553;-61
2021/11/19 06:11:03;;;;;;;;;;;;;;;2.72;71.75;96720.88;5023601;28;19991;-62
2021/11/19 06:13:30;;;;;;;;;;;;;;;2.89;71.45;96727.66;5005463;28;19921;-62
2021/11/19 06:15:59;;;;;;;;;;;;;;;2.98;71.38;96715.69;5005392;28;19917;-61
2021/11/19 06:18:31;;;;;;;;;;;;;;;3.31;69.60;96718.75;5023365;28;19979;-62
2021/11/19 06:20:59;;;;;;;;;;;;;;;3.32;68.95;96725.72;5005769;28;20378;-58
2021/11/19 06:23:27;;;;;;;;;;;;;;;3.16;70.62;96720.63;4999656;28;19917;-59
2021/11/19 06:25:52;;;;;;;;;;;;;;;3.47;69.42;96723.00;5015981;28;19921;-57
2021/11/19 06:28:20;;;;;;;;;;;;;;;3.72;67.83;96721.28;5005353;28;19921;-60
2021/11/19 06:30:45;;;;;;;;;;;;;;;3.52;69.47;96726.16;5005885;28;19948;-59
2021/11/19 06:33:10;;;;;;;;;;;;;;;3.38;69.94;96725.31;5022851;28;19925;-58
2021/11/19 06:35:36;;;;;;;;;;;;;;;3.59;69.25;96723.94;5005191;28;19918;-58
2021/11/19 06:38:01;;;;;;;;;;;;;;;3.48;69.68;96730.81;5023405;28;20156;-58
2021/11/19 06:40:28;;;;;;;;;;;;;;;3.74;68.99;96730.75;5012723;28;20004;-61
2021/11/19 06:42:54;;;;;;;;;;;;;;;3.73;68.00;96723.81;5021450;28;19947;-61
2021/11/19 06:45:19;;;;;;;;;;;;;;;4.03;67.29;96737.56;5015654;28;19921;-61
2021/11/19 06:47:44;;;;;;;;;;;;;;;4.48;66.44;96733.50;5024140;28;19917;-58
2021/11/19 06:50:10;;;;;;;;;;;;;;;3.93;67.79;96732.97;5005337;28;20012;-60
2021/11/19 06:52:35;;;;;;;;;;;;;;;4.35;66.70;96737.03;5022979;28;20147;-61
2021/11/19 06:55:01;;;;;;;;;;;;;;;4.44;65.53;96728.50;5022932;28;19921;-62
2021/11/19 06:57:26;;;;;;;;;;;;;;;4.11;66.90;96735.22;5021841;28;19952;-61
2021/11/19 06:59:51;;;;;;;;;;;;;;;3.22;71.60;96745.69;5022143;28;19921;-61
2021/11/19 07:02:16;;;;;;;;;;;;;;;3.60;69.08;96741.44;5023264;28;20402;-61
2021/11/19 07:04:42;;;;;;;;;;;;;;;3.77;67.67;96743.72;5023035;28;19997;-62
2021/11/19 07:07:08;;;;;;;;;;;;;;;4.02;67.41;96751.72;5022763;28;19963;-61
2021/11/19 07:09:33;;;;;;;;;;;;;;;4.38;66.08;96742.09;5022008;28;20456;-61
2021/11/19 07:12:00;;;;;;;;;;;;;;;3.94;66.45;96752.22;5022007;28;20433;-61
2021/11/19 07:14:25;;;;;;;;;;;;;;;3.54;69.13;96747.97;5021755;28;19929;-61
2021/11/19 07:16:51;;;;;;;;;;;;;;;3.85;67.56;96755.53;5021914;28;20011;-62
2021/11/19 07:19:16;;;;;;;;;;;;;;;3.93;67.84;96754.03;5021830;28;19920;-61
2021/11/19 07:21:42;;;;;;;;;;;;;;;4.14;66.62;96750.84;5022178;28;19921;-63
2021/11/19 07:24:07;;;;;;;;;;;;;;;3.92;68.74;96741.78;5022184;28;19951;-62
2021/11/19 07:26:32;;;;;;;;;;;;;;;3.63;68.97;96762.28;5022013;28;20000;-62
2021/11/19 07:28:58;;;;;;;;;;;;;;;3.71;68.87;96764.41;5021236;28;19933;-63
2021/11/19 07:31:23;;;;;;;;;;;;;;;4.01;67.30;96765.84;5022105;28;20326;-62
2021/11/19 07:33:48;;;;;;;;;;;;;;;3.99;68.02;96757.19;5021556;28;19917;-61
2021/11/19 07:36:14;;;;;;;;;;;;;;;4.09;68.04;96768.78;5021983;28;19951;-63
2021/11/19 07:38:40;;;;;;;;;;;;;;;3.84;68.58;96756.47;5004106;28;20434;-62
2021/11/19 07:41:06;;;;;;;;;;;;;;;3.93;68.63;96766.38;5007386;28;20224;-59
2021/11/19 07:43:32;;;;;;;;;;;;;;;4.17;67.58;96770.84;5020781;28;20162;-63
2021/11/19 07:45:57;;;;;;;;;;;;;;;3.88;68.92;96768.50;5020732;28;19924;-62
2021/11/19 07:48:25;;;;;;;;;;;;;;;4.19;67.48;96774.22;5018155;28;19925;-61
2021/11/19 07:50:51;;;;;;;;;;;;;;;3.40;69.50;96780.44;5017872;28;20444;-61
2021/11/19 07:53:17;;;;;;;;;;;;;;;4.16;68.40;96775.31;5017908;28;19960;-58
2021/11/19 07:55:43;;;;;;;;;;;;;;;4.14;68.12;96779.81;5014730;28;19922;-58
2021/11/19 07:58:08;;;;;;;;;;;;;;;3.74;68.86;96790.53;5017488;28;19925;-59
2021/11/19 08:00:34;;;;;;;;;;;;;;;3.53;69.91;96781.34;4999552;28;20028;-57
2021/11/19 08:02:59;;;;;;;;;;;;;;;3.46;70.88;96784.50;5018077;28;19973;-59
2021/11/19 08:05:25;;;;;;;;;;;;;;;3.35;70.75;96785.19;5016873;28;19929;-58
2021/11/19 08:07:50;;;;;;;;;;;;;;;3.54;70.58;96782.22;5010851;28;19929;-58
2021/11/19 08:10:15;;;;;;;;;;;;;;;4.50;67.25;96782.59;5017361;28;19993;-60
2021/11/19 08:12:41;;;;;;;;;;;;;;;4.55;66.02;96777.81;5016652;28;20387;-59
2021/11/19 08:15:06;;;;;;;;;;;;;;;4.36;65.33;96783.59;5017514;28;20171;-60
2021/11/19 08:17:32;;;;;;;;;;;;;;;4.14;67.43;96773.69;5017082;28;20106;-60
2021/11/19 08:19:58;;;;;;;;;;;;;;;4.09;67.78;96784.59;4998983;28;20458;-60
2021/11/19 08:22:24;;;;;;;;;;;;;;;4.15;66.89;96778.88;5030818;28;19965;-61
2021/11/19 08:24:49;;;;;;;;;;;;;;;4.11;67.29;96779.22;5017110;28;19997;-60
2021/11/19 08:27:19;;;;;;;;;;;;;;;3.85;69.01;96782.72;5017668;28;19967;-59
2021/11/19 08:29:45;;;;;;;;;;;;;;;4.79;63.90;96766.41;4999724;28;20298;-62
2021/11/19 08:32:10;;;;;;;;;;;;;;;5.20;63.73;96766.09;5020764;28;20032;-60
2021/11/19 08:34:36;;;;;;;;;;;;;;;5.03;63.35;96776.09;5021251;28;20012;-61
2021/11/19 08:37:01;;;;;;;;;;;;;;;5.24;62.04;96770.22;5020567;28;20276;-60
2021/11/19 08:39:27;;;;;;;;;;;;;;;4.52;64.29;96779.84;5018126;28;19936;-60
2021/11/19 08:41:52;;;;;;;;;;;;;;;4.48;66.42;96778.34;5007929;28;19935;-62
2021/11/19 08:44:18;;;;;;;;;;;;;;;4.64;62.98;96767.53;5016385;28;19932;-61
2021/11/19 08:46:44;;;;;;;;;;;;;;;4.67;64.02;96770.81;5020140;28;19921;-61
2021/11/19 08:49:11;;;;;;;;;;;;;;;4.38;65.97;96778.16;5014020;28;20325;-60
2021/11/19 08:51:36;;;;;;;;;;;;;;;3.92;65.27;96772.59;5018892;28;20038;-62
2021/11/19 08:54:03;;;;;;;;;;;;;;;5.24;61.84;96769.38;5019773;28;20414;-62
2021/11/19 08:56:29;;;;;;;;;;;;;;;4.59;62.57;96773.13;5020299;28;19933;-58
2021/11/19 08:58:55;;;;;;;;;;;;;;;4.62;62.04;96777.38;5020991;28;20555;-63
2021/11/19 09:01:20;;;;;;;;;;;;;;;4.25;66.76;96775.59;5020221;28;19921;-64
2021/11/19 09:03:47;;;;;;;;;;;;;;;5.17;63.81;96769.00;5002084;28;19925;-63
2021/11/19 09:06:14;;;;;;;;;;;;;;;4.93;65.04;96769.84;5019998;28;19921;-61
2021/11/19 09:08:39;;;;;;;;;;;;;;;5.10;61.73;96776.50;5019727;28;20440;-61
2021/11/19 09:11:05;;;;;;;;;;;;;;;5.07;64.42;96785.50;5016238;28;19917;-62
2021/11/19 09:13:30;;;;;;;;;;;;;;;5.86;60.06;96778.69;5019264;28;19925;-75
2021/11/19 09:15:59;;;;;;;;;;;;;;;6.00;58.77;96771.50;4985126;28;19925;-75
2021/11/19 09:18:30;;;;;;;;;;;;;;;6.08;58.05;96786.75;4986737;28;20344;-77
2021/11/19 09:21:03;;;;;;;;;;;;;;;5.61;59.70;96788.53;5018913;28;19925;-71
2021/11/19 09:23:30;;;;;;;;;;;;;;;6.09;58.56;96783.16;5002244;28;20374;-77
2021/11/19 09:25:59;;;;;;;;;;;;;;;6.17;58.55;96793.97;5002000;28;20580;-77
2021/11/19 09:28:25;;;;;;;;;;;;;;;5.94;59.08;96793.13;5007233;28;20185;-76
2021/11/19 09:30:54;;;;;;;;;;;;;;;5.68;60.17;96788.91;5020014;28;19925;-77
2021/11/19 09:33:19;;;;;;;;;;;;;;;5.25;61.70;96800.94;5020991;28;19925;-76
2021/11/19 09:35:45;;;;;;;;;;;;;;;5.31;60.87;96795.19;4992543;28;19967;-75
2021/11/19 09:38:11;;;;;;;;;;;;;;;5.43;61.72;96793.44;5008292;28;19928;-77
2021/11/19 09:40:37;;;;;;;;;;;;;;;5.00;63.43;96793.97;4984881;28;20401;-76
2021/11/19 09:43:06;;;;;;;;;;;;;;;5.00;62.65;96793.97;4994117;28;19921;-76
2021/11/19 09:45:44;;;;;;;;;;;;;;;4.86;63.03;96787.91;5034052;28;19925;-73
2021/11/19 09:48:21;;;;;;;;;;;;;;;4.93;62.92;96794.41;5019277;28;19925;-72
2021/11/19 09:50:52;;;;;;;;;;;;;;;4.84;63.20;96789.84;5008498;28;19932;-74
2021/11/19 09:53:21;;;;;;;;;;;;;;;4.47;63.94;96803.91;5018850;28;20292;-72
2021/11/19 09:56:06;;;;;;;;;;;;;;;4.35;64.69;96805.59;5018586;28;21086;-72
2021/11/19 09:58:46;;;;;;;;;;;;;;;4.66;64.16;96802.56;4992711;28;19928;-73
2021/11/19 10:01:14;;;;;;;;;;;;;;;4.26;65.46;96804.50;4985044;28;19921;-73
2021/11/19 10:03:43;;;;;;;;;;;;;;;4.64;63.64;96802.69;5019301;28;19917;-73
2021/11/19 10:06:22;;;;;;;;;;;;;;;4.39;65.13;96804.44;5019248;28;19947;-76
2021/11/19 10:08:50;;;;;;;;;;;;;;;4.25;65.16;96794.03;4984742;28;19933;-75
2021/11/19 10:11:18;;;;;;;;;;;;;;;3.93;65.78;96804.09;5000677;28;19927;-76
2021/11/19 10:14:02;;;;;;;;;;;;;;;4.35;64.65;96795.06;5007375;28;19921;-73
2021/11/19 10:16:29;;;;;;;;;;;;;;;4.33;65.08;96802.25;5016950;28;20461;-73
2021/11/19 10:18:58;;;;;;;;;;;;;;;4.30;65.08;96798.03;5001449;28;19917;-72
2021/11/19 10:21:34;;;;;;;;;;;;;;;4.87;63.42;96800.16;5034143;28;19928;-74
2021/11/19 10:24:04;;;;;;;;;;;;;;;4.51;64.02;96805.34;4994312;28;19921;-72
2021/11/19 10:26:33;;;;;;;;;;;;;;;4.48;64.79;96794.16;4984734;28;19917;-75
2021/11/19 10:29:17;;;;;;;;;;;;;;;4.62;64.36;96795.84;5001276;28;19951;-73
2021/11/19 10:31:42;;;;;;;;;;;;;;;4.49;64.25;96794.06;5018755;28;19945;-73
2021/11/19 10:34:15;;;;;;;;;;;;;;;4.43;64.64;96782.16;5001340;28;20027;-74
2021/11/19 10:36:47;;;;;;;;;;;;;;;4.18;65.49;96783.06;5000919;28;19922;-77
2021/11/19 10:39:21;;;;;;;;;;;;;;;4.69;64.09;96787.34;5031323;28;19921;-73
2021/11/19 10:42:02;;;;;;;;;;;;;;;4.50;65.21;96787.00;5018448;28;19928;-76
2021/11/19 10:44:46;;;;;;;;;;;;;;;4.67;65.33;96784.00;5015455;28;20352;-77
2021/11/19 10:47:17;;;;;;;;;;;;;;;4.94;63.78;96779.44;5017315;28;19925;-75
2021/11/19 10:50:01;;;;;;;;;;;;;;;5.17;62.61;96780.38;5001615;28;20361;-74
2021/11/19 10:52:44;;;;;;;;;;;;;;;5.42;62.14;96777.69;5018902;28;19929;-78
2021/11/19 10:55:24;;;;;;;;;;;;;;;5.50;62.24;96779.75;4984947;28;19948;-78
2021/11/19 10:58:12;;;;;;;;;;;;;;;5.66;61.26;96780.25;5023485;28;20401;-77
2021/11/19 11:00:53;;;;;;;;;;;;;;;5.32;62.22;96780.19;5007218;28;20019;-77
2021/11/19 11:03:20;;;;;;;;;;;;;;;4.99;63.42;96772.00;5036300;28;19924;-76
2021/11/19 11:05:46;;;;;;;;;;;;;;;4.70;64.74;96783.75;5011465;28;19928;-75
2021/11/19 11:08:12;;;;;;;;;;;;;;;4.78;64.96;96777.06;5022144;28;19926;-77
2021/11/19 11:10:42;;;;;;;;;;;;;;;4.75;64.88;96774.66;5002962;28;19922;-76
2021/11/19 11:13:24;;;;;;;;;;;;;;;5.19;64.41;96772.34;5001149;28;20358;-75
2021/11/19 11:15:52;;;;;;;;;;;;;;;5.45;63.02;96764.25;5001246;28;20554;-75
2021/11/19 11:18:19;;;;;;;;;;;;;;;5.72;61.59;96769.19;5002936;28;19924;-78
2021/11/19 11:21:05;;;;;;;;;;;;;;;5.66;62.01;96766.19;5002130;28;19928;-76
2021/11/19 11:23:35;;;;;;;;;;;;;;;5.34;63.31;96762.44;4996896;28;19983;-77
2021/11/19 11:26:00;;;;;;;;;;;;;;;5.19;63.65;96767.91;5008575;28;19929;-78
2021/11/19 11:28:48;;;;;;;;;;;;;;;5.55;63.05;96759.09;4998647;28;19929;-78
2021/11/19 11:31:29;;;;;;;;;;;;;;;5.84;61.92;96751.56;4989602;28;19922;-77
2021/11/19 11:33:57;;;;;;;;;;;;;;;5.65;63.41;96757.44;4995702;28;20386;-77
2021/11/19 11:36:32;;;;;;;;;;;;;;;5.99;61.60;96749.50;4998319;28;19925;-77
2021/11/19 11:39:26;;;;;;;;;;;;;;;6.21;61.55;96749.59;4998611;28;19939;-77
2021/11/19 11:42:02;;;;;;;;;;;;;;;5.72;61.92;96748.06;4996660;28;19935;-67
2021/11/19 11:44:40;;;;;;;;;;;;;;;5.88;62.20;96746.03;4998364;28;19925;-78
2021/11/19 11:47:07;;;;;;;;;;;;;;;6.28;60.91;96745.50;5013568;28;19921;-77
2021/11/19 11:49:34;;;;;;;;;;;;;;;6.31;60.55;96742.63;5000221;28;19968;-76
2021/11/19 11:52:01;;;;;;;;;;;;;;;6.34;60.66;96736.25;4999502;28;19921;-76
2021/11/19 11:54:35;;;;;;;;;;;;;;;6.17;61.05;96734.94;5016236;28;19921;-77
2021/11/19 11:57:19;;;;;;;;;;;;;;;6.04;60.25;96740.38;4982341;28;19926;-77
2021/11/19 11:59:50;;;;;;;;;;;;;;;6.57;60.15;96730.94;5003058;28;20418;-79
2021/11/19 12:02:22;;;;;;;;;;;;;;;6.02;61.81;96734.38;5003763;28;19917;-77
2021/11/19 12:05:06;;;;;;;;;;;;;;;5.77;63.16;96749.50;5000276;28;19925;-77
2021/11/19 12:07:37;;;;;;;;;;;;;;;5.04;65.30;96758.47;5004694;28;20469;-78
2021/11/19 12:10:02;;;;;;;;;;;;;;;5.35;64.89;96741.16;4990015;28;19925;-76
2021/11/19 12:12:33;;;;;;;;;;;;;;;4.85;67.07;96736.09;5038307;28;20380;-75
2021/11/19 12:15:17;;;;;;;;;;;;;;;4.36;68.29;96746.66;4989776;28;19956;-78
2021/11/19 12:17:52;;;;;;;;;;;;;;;5.12;66.67;96731.53;5023198;28;20510;-78
2021/11/19 12:20:25;;;;;;;;;;;;;;;4.46;68.57;96736.28;5005607;28;19932;-76
2021/11/19 12:23:15;;;;;;;;;;;;;;;4.43;68.35;96744.41;5010998;28;19921;-76
2021/11/19 12:25:59;;;;;;;;;;;;;;;4.13;69.93;96735.97;4989579;28;20008;-76
2021/11/19 12:28:28;;;;;;;;;;;;;;;4.55;68.40;96732.13;5021714;28;19928;-78
2021/11/19 12:30:56;;;;;;;;;;;;;;;4.40;68.85;96723.53;5005718;28;19925;-77
2021/11/19 12:33:28;;;;;;;;;;;;;;;4.62;68.66;96737.81;5006804;28;19995;-77
2021/11/19 12:36:02;;;;;;;;;;;;;;;4.96;67.46;96725.56;5046647;28;20383;-79
2021/11/19 12:38:31;;;;;;;;;;;;;;;5.03;66.83;96719.84;4990171;28;19913;-79
2021/11/19 12:40:58;;;;;;;;;;;;;;;4.62;68.20;96724.63;5021352;28;19925;-76
2021/11/19 12:43:32;;;;;;;;;;;;;;;4.54;68.52;96726.03;5015713;28;20059;-77
2021/11/19 12:46:00;;;;;;;;;;;;;;;4.43;69.09;96720.69;5023919;28;20051;-77
2021/11/19 12:48:34;;;;;;;;;;;;;;;4.42;69.19;96722.47;5006824;28;20763;-76
2021/11/19 12:51:02;;;;;;;;;;;;;;;4.67;68.30;96719.84;4978504;28;20433;-74
2021/11/19 12:53:46;;;;;;;;;;;;;;;4.36;69.28;96717.66;4998656;28;19925;-78
2021/11/19 12:56:37;;;;;;;;;;;;;;;4.55;68.55;96711.00;5022623;28;20360;-75
2021/11/19 12:59:06;;;;;;;;;;;;;;;4.41;69.19;96712.88;4994498;28;19957;-79
2021/11/19 13:01:36;;;;;;;;;;;;;;;4.75;68.12;96721.88;5024386;28;20400;-80
2021/11/19 13:04:16;;;;;;;;;;;;;;;4.49;68.55;96712.31;5035169;28;20024;-79